sensor_id;sensor_type;location;lat;lon;timestamp;pressure;altitude;pressure_sealevel;temperature;humidity
19674;BME280;9986;50.610;7.230;2023-12-29T00:04:14;145174.66;;;9.53;100.00
19674;BME280;9986;50.610;7.230;2023-12-29T00:12:05;145184.72;;;9.57;100.00
19674;BME280;9986;50.610;7.230;2023-12-29T00:19:56;145241.22;;;9.80;100.00
19674;BME280;9986;50.610;7.230;2023-12-29T00:27:46;145301.62;;;10.04;100.00
19674;BME280;9986;50.610;7.230;2023-12-29T00:32:58;145281.44;;;9.96;100.00
19674;BME280;9986;50.610;7.230;2023-12-29T00:38:11;145281.44;;;9.96;100.00
19674;BME280;9986;50.610;7.230;2023-12-29T00:51:29;145291.55;;;10.00;100.00
19674;BME280;9986;50.610;7.230;2023-12-29T00:59:20;145268.89;;;9.91;100.00
19674;BME280;9986;50.610;7.230;2023-12-29T01:15:11;145226.16;;;9.74;100.00
19674;BME280;9986;50.610;7.230;2023-12-29T01:41:40;145382.03;;;10.35;100.00
19674;BME280;9986;50.610;7.230;2023-12-29T01:52:22;145374.48;;;10.32;100.00
19674;BME280;9986;50.610;7.230;2023-12-29T02:00:14;145446.19;;;10.61;100.00
19674;BME280;9986;50.610;7.230;2023-12-29T02:24:08;145465.05;;;10.68;100.00
19674;BME280;9986;50.610;7.230;2023-12-29T02:37:16;145496.45;;;10.81;100.00
19674;BME280;9986;50.610;7.230;2023-12-29T02:42:30;145485.14;;;10.76;100.00
19674;BME280;9986;50.610;7.230;2023-12-29T02:50:22;145495.22;;;10.80;100.00
19674;BME280;9986;50.610;7.230;2023-12-29T02:55:35;145471.31;;;10.71;100.00
19674;BME280;9986;50.610;7.230;2023-12-29T03:06:04;145492.70;;;10.79;100.00
19674;BME280;9986;50.610;7.230;2023-12-29T03:11:18;145498.97;;;10.82;100.00
19674;BME280;9986;50.610;7.230;2023-12-29T03:16:32;145482.63;;;10.75;100.00
19674;BME280;9986;50.610;7.230;2023-12-29T03:21:45;145512.81;;;10.87;100.00
19674;BME280;9986;50.610;7.230;2023-12-29T03:26:58;145452.45;;;10.63;100.00
19674;BME280;9986;50.610;7.230;2023-12-29T03:53:23;145486.42;;;10.77;100.00
19674;BME280;9986;50.610;7.230;2023-12-29T03:58:37;145526.64;;;10.93;100.00
19674;BME280;9986;50.610;7.230;2023-12-29T04:11:54;145496.45;;;10.81;100.00
19674;BME280;9986;50.610;7.230;2023-12-29T04:17:07;145531.69;;;10.95;100.00
19674;BME280;9986;50.610;7.230;2023-12-29T04:22:23;145522.89;;;10.91;100.00
19674;BME280;9986;50.610;7.230;2023-12-29T04:30:14;145505.25;;;10.84;100.00
19674;BME280;9986;50.610;7.230;2023-12-29T04:38:05;145478.88;;;10.74;100.00
19674;BME280;9986;50.610;7.230;2023-12-29T04:48:35;145490.19;;;10.78;100.00
19674;BME280;9986;50.610;7.230;2023-12-29T05:01:51;145432.34;;;10.55;100.00
19674;BME280;9986;50.610;7.230;2023-12-29T05:06:59;145422.28;;;10.51;100.00
19674;BME280;9986;50.610;7.230;2023-12-29T05:12:12;145358.14;;;10.26;100.00
19674;BME280;9986;50.610;7.230;2023-12-29T05:17:25;145361.94;;;10.27;100.00
19674;BME280;9986;50.610;7.230;2023-12-29T05:22:38;145335.53;;;10.17;100.00
19674;BME280;9986;50.610;7.230;2023-12-29T05:30:29;145349.36;;;10.23;100.00
19674;BME280;9986;50.610;7.230;2023-12-29T05:41:00;145397.14;;;10.41;100.00
19674;BME280;9986;50.610;7.230;2023-12-29T05:51:30;145372.00;;;10.31;100.00
19674;BME280;9986;50.610;7.230;2023-12-29T05:56:44;145426.03;;;10.53;100.00
19674;BME280;9986;50.610;7.230;2023-12-29T06:01:57;145432.34;;;10.55;100.00
19674;BME280;9986;50.610;7.230;2023-12-29T06:09:47;145429.83;;;10.54;100.00
19674;BME280;9986;50.610;7.230;2023-12-29T06:25:38;145429.83;;;10.54;100.00
19674;BME280;9986;50.610;7.230;2023-12-29T06:30:52;145434.87;;;10.56;100.00
19674;BME280;9986;50.610;7.230;2023-12-29T06:36:07;145456.20;;;10.65;100.00
19674;BME280;9986;50.610;7.230;2023-12-29T06:41:20;145446.19;;;10.61;100.00
19674;BME280;9986;50.610;7.230;2023-12-29T06:46:33;145439.86;;;10.58;100.00
19674;BME280;9986;50.610;7.230;2023-12-29T06:54:24;145419.75;;;10.50;100.00
19674;BME280;9986;50.610;7.230;2023-12-29T07:05:00;145457.48;;;10.65;100.00
19674;BME280;9986;50.610;7.230;2023-12-29T07:10:11;145444.89;;;10.60;100.00
19674;BME280;9986;50.610;7.230;2023-12-29T07:18:02;145460.00;;;10.66;100.00
19674;BME280;9986;50.610;7.230;2023-12-29T07:23:15;145439.86;;;10.58;100.00
19674;BME280;9986;50.610;7.230;2023-12-29T07:31:12;145427.31;;;10.53;100.00
19674;BME280;9986;50.610;7.230;2023-12-29T07:41:41;145399.66;;;10.42;100.00
19674;BME280;9986;50.610;7.230;2023-12-29T07:52:14;145446.19;;;10.61;100.00
19674;BME280;9986;50.610;7.230;2023-12-29T08:02:53;145462.53;;;10.67;100.00
19674;BME280;9986;50.610;7.230;2023-12-29T08:10:45;145482.63;;;10.75;100.00
19674;BME280;9986;50.610;7.230;2023-12-29T08:15:55;145490.19;;;10.78;100.00
19674;BME280;9986;50.610;7.230;2023-12-29T08:21:08;145485.14;;;10.76;100.00
19674;BME280;9986;50.610;7.230;2023-12-29T08:26:22;145482.63;;;10.75;100.00
19674;BME280;9986;50.610;7.230;2023-12-29T08:42:08;145540.47;;;10.98;100.00
19674;BME280;9986;50.610;7.230;2023-12-29T08:47:21;145565.66;;;11.08;100.00
19674;BME280;9986;50.610;7.230;2023-12-29T08:55:12;145559.34;;;11.06;100.00
19674;BME280;9986;50.610;7.230;2023-12-29T09:00:25;145585.78;;;11.16;100.00
19674;BME280;9986;50.610;7.230;2023-12-29T09:08:15;145597.09;;;11.20;100.00
19674;BME280;9986;50.610;7.230;2023-12-29T09:16:07;145607.17;;;11.24;100.00
19674;BME280;9986;50.610;7.230;2023-12-29T09:23:54;145637.37;;;11.36;100.00
19674;BME280;9986;50.610;7.230;2023-12-29T09:31:45;145628.56;;;11.33;100.00
19674;BME280;9986;50.610;7.230;2023-12-29T09:36:58;145648.69;;;11.41;100.00
19674;BME280;9986;50.610;7.230;2023-12-29T09:47:32;145646.16;;;11.40;100.00
19674;BME280;9986;50.610;7.230;2023-12-29T09:52:48;145646.16;;;11.40;100.00
19674;BME280;9986;50.610;7.230;2023-12-29T10:00:50;145666.33;;;11.48;100.00
19674;BME280;9986;50.610;7.230;2023-12-29T10:08:46;145685.27;;;11.55;100.00
19674;BME280;9986;50.610;7.230;2023-12-29T10:14:02;145702.86;;;11.62;100.00
19674;BME280;9986;50.610;7.230;2023-12-29T10:16:35;145691.53;;;11.58;100.00
19674;BME280;9986;50.610;7.230;2023-12-29T10:24:30;145724.27;;;11.71;100.00
19674;BME280;9986;50.610;7.230;2023-12-29T10:57:01;145714.19;;;11.67;100.00
19674;BME280;9986;50.610;7.230;2023-12-29T11:02:15;145736.81;;;11.76;100.00
19674;BME280;9986;50.610;7.230;2023-12-29T11:12:56;145770.84;;;11.89;100.00
19674;BME280;9986;50.610;7.230;2023-12-29T11:18:11;145749.42;;;11.81;100.00
19674;BME280;9986;50.610;7.230;2023-12-29T11:31:18;145770.84;;;11.89;100.00
19674;BME280;9986;50.610;7.230;2023-12-29T11:44:35;145804.81;;;12.03;100.00
19674;BME280;9986;50.610;7.230;2023-12-29T11:50:01;145792.25;;;11.98;100.00
19674;BME280;9986;50.610;7.230;2023-12-29T12:00:44;145762.03;;;11.86;100.00
19674;BME280;9986;50.610;7.230;2023-12-29T12:06:04;145774.59;;;11.91;100.00
19674;BME280;9986;50.610;7.230;2023-12-29T12:14:45;145751.94;;;11.82;100.00
19674;BME280;9986;50.610;7.230;2023-12-29T12:44:16;145770.84;;;11.89;100.00
19674;BME280;9986;50.610;7.230;2023-12-29T12:49:34;145801.05;;;12.01;100.00
19674;BME280;9986;50.610;7.230;2023-12-29T12:57:27;145832.55;;;12.13;100.00
19674;BME280;9986;50.610;7.230;2023-12-29T13:05:19;145835.03;;;12.14;100.00
19674;BME280;9986;50.610;7.230;2023-12-29T13:13:14;145811.14;;;12.05;100.00
19674;BME280;9986;50.610;7.230;2023-12-29T13:18:31;145831.27;;;12.13;100.00
19674;BME280;9986;50.610;7.230;2023-12-29T13:23:44;145817.42;;;12.08;100.00
19674;BME280;9986;50.610;7.230;2023-12-29T13:28:57;145845.11;;;12.18;100.00
19674;BME280;9986;50.610;7.230;2023-12-29T13:34:16;145824.98;;;12.11;100.00
19674;BME280;9986;50.610;7.230;2023-12-29T13:42:06;145804.81;;;12.03;100.00
19674;BME280;9986;50.610;7.230;2023-12-29T13:47:21;145835.03;;;12.14;100.00
19674;BME280;9986;50.610;7.230;2023-12-29T13:52:36;145835.03;;;12.14;100.00
19674;BME280;9986;50.610;7.230;2023-12-29T13:57:48;145806.09;;;12.03;100.00
19674;BME280;9986;50.610;7.230;2023-12-29T14:03:09;145797.28;;;12.00;100.00
19674;BME280;9986;50.610;7.230;2023-12-29T14:11:06;145767.08;;;11.88;100.00
19674;BME280;9986;50.610;7.230;2023-12-29T14:21:35;145738.11;;;11.76;100.00
19674;BME280;9986;50.610;7.230;2023-12-29T14:26:56;145749.42;;;11.81;100.00
19674;BME280;9986;50.610;7.230;2023-12-29T14:32:10;145721.73;;;11.70;100.00
19674;BME280;9986;50.610;7.230;2023-12-29T15:09:04;145651.20;;;11.42;100.00
19674;BME280;9986;50.610;7.230;2023-12-29T15:16:56;145671.33;;;11.50;100.00
19674;BME280;9986;50.610;7.230;2023-12-29T15:27:31;145686.50;;;11.56;100.00
19674;BME280;9986;50.610;7.230;2023-12-29T15:37:59;145683.97;;;11.55;100.00
19674;BME280;9986;50.610;7.230;2023-12-29T15:56:31;145652.50;;;11.42;100.00
19674;BME280;9986;50.610;7.230;2023-12-29T16:01:44;145656.25;;;11.44;100.00
19674;BME280;9986;50.610;7.230;2023-12-29T16:12:18;145587.02;;;11.16;100.00
19674;BME280;9986;50.610;7.230;2023-12-29T16:22:54;145624.77;;;11.31;100.00
19674;BME280;9986;50.610;7.230;2023-12-29T16:30:45;145624.77;;;11.31;100.00
19674;BME280;9986;50.610;7.230;2023-12-29T16:35:58;145570.66;;;11.10;100.00
19674;BME280;9986;50.610;7.230;2023-12-29T16:51:45;145540.47;;;10.98;100.00
19674;BME280;9986;50.610;7.230;2023-12-29T16:56:58;145561.86;;;11.07;100.00
19674;BME280;9986;50.610;7.230;2023-12-29T17:02:11;145579.50;;;11.14;100.00
19674;BME280;9986;50.610;7.230;2023-12-29T17:07:24;145574.47;;;11.12;100.00
19674;BME280;9986;50.610;7.230;2023-12-29T17:12:37;145565.66;;;11.08;100.00
19674;BME280;9986;50.610;7.230;2023-12-29T17:17:50;145605.89;;;11.24;100.00
19674;BME280;9986;50.610;7.230;2023-12-29T17:25:42;145607.17;;;11.24;100.00
19674;BME280;9986;50.610;7.230;2023-12-29T17:33:35;145608.41;;;11.25;100.00
19674;BME280;9986;50.610;7.230;2023-12-29T17:41:20;145603.42;;;11.23;100.00
19674;BME280;9986;50.610;7.230;2023-12-29T18:07:36;145522.89;;;10.91;100.00
19674;BME280;9986;50.610;7.230;2023-12-29T18:26:03;145578.22;;;11.13;100.00
19674;BME280;9986;50.610;7.230;2023-12-29T18:31:16;145573.17;;;11.11;100.00
19674;BME280;9986;50.610;7.230;2023-12-29T18:41:47;145526.64;;;10.93;100.00
19674;BME280;9986;50.610;7.230;2023-12-29T18:52:20;145354.39;;;10.24;100.00
19674;BME280;9986;50.610;7.230;2023-12-29T19:05:28;145239.97;;;9.79;100.00
19674;BME280;9986;50.610;7.230;2023-12-29T19:10:40;145238.75;;;9.79;100.00
19674;BME280;9986;50.610;7.230;2023-12-29T19:26:39;145370.72;;;10.31;100.00
19674;BME280;9986;50.610;7.230;2023-12-29T19:31:48;145356.91;;;10.25;100.00
19674;BME280;9986;50.610;7.230;2023-12-29T19:37:01;145453.73;;;10.64;100.00
19674;BME280;9986;50.610;7.230;2023-12-29T19:44:59;145449.94;;;10.62;100.00
19674;BME280;9986;50.610;7.230;2023-12-29T19:52:56;145448.69;;;10.62;100.00
19674;BME280;9986;50.610;7.230;2023-12-29T20:06:18;145502.78;;;10.83;100.00
19674;BME280;9986;50.610;7.230;2023-12-29T20:11:33;145506.53;;;10.85;100.00
19674;BME280;9986;50.610;7.230;2023-12-29T20:22:09;145505.25;;;10.84;100.00
19674;BME280;9986;50.610;7.230;2023-12-29T20:32:46;145564.37;;;11.08;100.00
19674;BME280;9986;50.610;7.230;2023-12-29T20:40:37;145519.13;;;10.90;100.00
19674;BME280;9986;50.610;7.230;2023-12-29T20:51:06;145521.59;;;10.91;100.00
19674;BME280;9986;50.610;7.230;2023-12-29T21:01:35;145510.28;;;10.86;100.00
19674;BME280;9986;50.610;7.230;2023-12-29T21:06:44;145507.77;;;10.85;100.00
19674;BME280;9986;50.610;7.230;2023-12-29T21:14:35;145504.02;;;10.84;100.00
19674;BME280;9986;50.610;7.230;2023-12-29T21:33:08;145339.33;;;10.19;100.00
19674;BME280;9986;50.610;7.230;2023-12-29T21:38:21;145286.47;;;9.98;100.00
19674;BME280;9986;50.610;7.230;2023-12-29T21:43:29;145250.05;;;9.83;100.00
19674;BME280;9986;50.610;7.230;2023-12-29T21:54:06;145106.83;;;9.27;100.00
19674;BME280;9986;50.610;7.230;2023-12-29T21:59:19;145028.97;;;8.96;100.00
19674;BME280;9986;50.610;7.230;2023-12-29T22:09:53;145027.72;;;8.95;100.00
19674;BME280;9986;50.610;7.230;2023-12-29T22:33:56;145085.47;;;9.18;100.00
19674;BME280;9986;50.610;7.230;2023-12-29T22:41:57;145218.61;;;9.71;100.00
19674;BME280;9986;50.610;7.230;2023-12-29T22:49:47;145290.27;;;9.99;100.00
19674;BME280;9986;50.610;7.230;2023-12-29T22:55:00;145277.69;;;9.94;100.00
19674;BME280;9986;50.610;7.230;2023-12-29T23:00:15;145309.13;;;10.07;100.00
19674;BME280;9986;50.610;7.230;2023-12-29T23:05:34;145346.84;;;10.22;100.00
19674;BME280;9986;50.610;7.230;2023-12-29T23:18:47;145324.22;;;10.13;100.00
19674;BME280;9986;50.610;7.230;2023-12-29T23:29:25;145339.33;;;10.19;100.00
19674;BME280;9986;50.610;7.230;2023-12-29T23:34:40;145364.45;;;10.28;100.00
19674;BME280;9986;50.610;7.230;2023-12-29T23:55:57;145348.12;;;10.22;100.00
